Time;durP1;ratioP1;P1;durP2;ratioP2;P2;SDS_P1;SDS_P2;PMS_P1;PMS_P2;Temp;Humidity;BMP_temperature;BMP_pressure;BME280_temperature;BME280_humidity;BME280_pressure;Samples;Min_cycle;Max_cycle;Signal;HPM_P1;HPM_P2
2022/05/07 00:01:32;;;;;;;10.60;8.13;;;;;;;;;;5052934;28;20076;-77
2022/05/07 00:03:58;;;;;;;18.77;12.65;;;;;;;;;;5053232;28;20618;-77
2022/05/07 00:06:25;;;;;;;35.63;21.58;;;;;;;;;;5053317;28;20468;-77
2022/05/07 00:08:51;;;;;;;34.92;21.13;;;;;;;;;;5052825;28;20084;-77
2022/05/07 00:11:20;;;;;;;63.33;35.40;;;;;;;;;;5053153;28;20087;-77
2022/05/07 00:13:50;;;;;;;58.28;33.05;;;;;;;;;;5051835;28;20049;-78
2022/05/07 00:19:02;;;;;;;84.55;44.70;;;;;;;;;;5053114;28;20128;-77
2022/05/07 00:21:29;;;;;;;38.47;21.92;;;;;;;;;;5052619;28;20080;-77
2022/05/07 00:23:57;;;;;;;64.72;33.30;;;;;;;;;;5052924;28;20115;-77
2022/05/07 00:26:23;;;;;;;67.30;34.38;;;;;;;;;;5052397;28;20061;-77
2022/05/07 00:28:50;;;;;;;60.83;33.58;;;;;;;;;;5052490;28;20131;-78
2022/05/07 00:31:16;;;;;;;41.00;23.75;;;;;;;;;;5045250;28;20072;-77
2022/05/07 00:33:42;;;;;;;26.65;16.90;;;;;;;;;;5052264;28;20496;-77
2022/05/07 00:36:09;;;;;;;51.67;30.73;;;;;;;;;;5051014;28;20148;-79
2022/05/07 00:38:35;;;;;;;36.47;23.63;;;;;;;;;;5049957;28;20087;-77
2022/05/07 00:41:02;;;;;;;38.22;25.58;;;;;;;;;;5052054;28;20088;-77
2022/05/07 00:43:35;;;;;;;30.40;23.38;;;;;;;;;;5050756;28;20093;-77
2022/05/07 00:46:02;;;;;;;14.13;10.80;;;;;;;;;;5052458;28;20110;-77
2022/05/07 00:48:28;;;;;;;11.60;9.05;;;;;;;;;;5052270;28;20107;-76
2022/05/07 00:53:40;;;;;;;11.85;9.68;;;;;;;;;;5051946;28;20080;-77
2022/05/07 00:56:07;;;;;;;10.43;7.75;;;;;;;;;;5052135;28;20493;-77
2022/05/07 00:58:34;;;;;;;12.18;9.85;;;;;;;;;;5052024;28;20053;-77
2022/05/07 01:01:01;;;;;;;9.73;7.43;;;;;;;;;;5051092;28;20174;-77
2022/05/07 01:03:27;;;;;;;8.30;6.80;;;;;;;;;;5051834;28;20337;-77
2022/05/07 01:05:54;;;;;;;8.30;6.45;;;;;;;;;;5051802;28;20076;-77
2022/05/07 01:08:20;;;;;;;9.52;7.82;;;;;;;;;;5051849;28;20049;-77
2022/05/07 01:10:47;;;;;;;9.88;6.78;;;;;;;;;;5052078;28;20072;-77
2022/05/07 01:13:14;;;;;;;9.15;7.28;;;;;;;;;;5051697;28;20084;-77
2022/05/07 01:15:47;;;;;;;7.78;6.95;;;;;;;;;;5051613;28;20504;-77
2022/05/07 01:18:17;;;;;;;8.63;6.82;;;;;;;;;;5051972;28;20056;-77
2022/05/07 01:20:44;;;;;;;8.63;6.95;;;;;;;;;;5052151;28;20578;-77
2022/05/07 01:23:11;;;;;;;10.43;7.78;;;;;;;;;;5051794;28;20072;-77
2022/05/07 01:25:38;;;;;;;8.45;7.55;;;;;;;;;;5038468;28;20485;-78
2022/05/07 01:28:05;;;;;;;9.25;7.20;;;;;;;;;;5050351;28;20445;-77
2022/05/07 01:30:33;;;;;;;9.20;7.38;;;;;;;;;;5051877;28;20076;-78
2022/05/07 01:32:59;;;;;;;12.60;9.00;;;;;;;;;;5051502;28;20072;-78
2022/05/07 01:35:26;;;;;;;10.23;7.18;;;;;;;;;;5051832;28;20077;-78
2022/05/07 01:37:52;;;;;;;11.27;8.50;;;;;;;;;;5051344;28;20084;-78
2022/05/07 01:40:19;;;;;;;10.32;7.88;;;;;;;;;;5051694;28;20076;-78
2022/05/07 01:42:45;;;;;;;9.60;7.50;;;;;;;;;;5052228;28;20080;-78
2022/05/07 01:45:11;;;;;;;9.77;7.43;;;;;;;;;;5054662;28;20076;-78
2022/05/07 01:50:23;;;;;;;12.68;8.52;;;;;;;;;;5055749;28;20049;-78
2022/05/07 01:52:49;;;;;;;14.23;9.35;;;;;;;;;;5055427;28;20084;-77
2022/05/07 01:55:16;;;;;;;13.20;9.20;;;;;;;;;;5055617;28;20085;-77
2022/05/07 01:57:42;;;;;;;16.33;9.80;;;;;;;;;;5055341;28;20073;-77
2022/05/07 02:00:09;;;;;;;14.07;9.70;;;;;;;;;;5055268;28;20080;-78
2022/05/07 02:02:35;;;;;;;16.48;10.55;;;;;;;;;;5055420;28;20049;-77
2022/05/07 02:05:02;;;;;;;14.55;10.60;;;;;;;;;;5055503;28;20041;-77
2022/05/07 02:07:29;;;;;;;14.68;9.80;;;;;;;;;;5055447;28;20072;-77
2022/05/07 02:09:55;;;;;;;14.60;9.98;;;;;;;;;;5055118;28;20085;-77
2022/05/07 02:12:22;;;;;;;16.38;10.27;;;;;;;;;;5055068;28;20509;-77
2022/05/07 02:14:48;;;;;;;14.25;9.50;;;;;;;;;;5055063;28;20091;-77
2022/05/07 02:17:15;;;;;;;13.40;9.63;;;;;;;;;;5055087;28;20080;-77
2022/05/07 02:19:41;;;;;;;15.30;10.68;;;;;;;;;;5055088;28;20136;-77
2022/05/07 02:22:07;;;;;;;14.10;10.30;;;;;;;;;;5055042;28;20084;-76
2022/05/07 02:24:34;;;;;;;13.52;9.98;;;;;;;;;;5055071;28;20079;-76
2022/05/07 02:27:00;;;;;;;14.35;9.48;;;;;;;;;;5055057;28;20091;-76
2022/05/07 02:29:27;;;;;;;15.77;10.43;;;;;;;;;;5054934;28;20098;-77
2022/05/07 02:32:06;;;;;;;13.50;9.50;;;;;;;;;;5054686;28;20550;-76
2022/05/07 02:34:33;;;;;;;15.05;10.35;;;;;;;;;;5054615;28;20067;-77
2022/05/07 02:36:59;;;;;;;14.80;10.40;;;;;;;;;;5054648;28;20527;-77
2022/05/07 02:39:26;;;;;;;15.40;10.27;;;;;;;;;;5054430;28;20076;-77
2022/05/07 02:44:38;;;;;;;13.90;10.23;;;;;;;;;;5054290;28;20505;-77
2022/05/07 02:47:04;;;;;;;15.03;10.23;;;;;;;;;;5052986;28;20049;-78
2022/05/07 02:49:31;;;;;;;13.65;9.48;;;;;;;;;;5054587;28;20081;-78
2022/05/07 02:51:58;;;;;;;18.08;10.75;;;;;;;;;;5054506;28;20103;-77
2022/05/07 02:54:24;;;;;;;15.77;9.63;;;;;;;;;;5051862;28;20083;-77
2022/05/07 02:56:51;;;;;;;12.13;9.63;;;;;;;;;;5069459;28;20075;-77
2022/05/07 02:59:17;;;;;;;14.57;10.10;;;;;;;;;;5054591;28;20124;-77
2022/05/07 03:01:44;;;;;;;12.75;9.75;;;;;;;;;;5054410;28;20076;-77
2022/05/07 03:04:10;;;;;;;13.82;9.55;;;;;;;;;;5069136;28;20492;-77
2022/05/07 03:06:37;;;;;;;15.25;10.02;;;;;;;;;;5054353;28;20107;-77
2022/05/07 03:09:04;;;;;;;12.60;8.77;;;;;;;;;;5054242;28;20074;-78
2022/05/07 03:11:33;;;;;;;12.80;9.25;;;;;;;;;;5054173;28;20048;-78
2022/05/07 03:14:00;;;;;;;12.95;8.85;;;;;;;;;;5054012;28;20045;-78
2022/05/07 03:16:27;;;;;;;13.20;9.07;;;;;;;;;;5054044;28;20080;-77
2022/05/07 03:18:53;;;;;;;15.02;7.90;;;;;;;;;;5053983;28;20118;-78
2022/05/07 03:21:20;;;;;;;14.05;8.40;;;;;;;;;;5053960;28;20064;-78
2022/05/07 03:23:46;;;;;;;10.20;7.45;;;;;;;;;;5053674;28;20131;-78
2022/05/07 03:26:13;;;;;;;11.40;7.78;;;;;;;;;;5053901;28;20102;-78
2022/05/07 03:28:40;;;;;;;10.70;6.95;;;;;;;;;;5053985;28;20083;-78
2022/05/07 03:31:06;;;;;;;10.43;6.93;;;;;;;;;;5053876;28;20091;-78
2022/05/07 03:33:33;;;;;;;9.43;7.35;;;;;;;;;;5053867;28;20057;-78
2022/05/07 03:36:00;;;;;;;10.90;6.43;;;;;;;;;;5053673;28;20076;-78
2022/05/07 03:38:26;;;;;;;9.95;6.90;;;;;;;;;;5053724;28;20084;-78
2022/05/07 03:40:53;;;;;;;8.48;6.22;;;;;;;;;;5052412;28;20084;-78
2022/05/07 03:43:19;;;;;;;9.40;6.15;;;;;;;;;;5053117;28;20045;-78
2022/05/07 03:45:46;;;;;;;7.63;6.00;;;;;;;;;;5053358;28;20076;-78
2022/05/07 03:48:12;;;;;;;9.15;5.70;;;;;;;;;;5052301;28;20152;-78
2022/05/07 03:50:39;;;;;;;8.02;4.78;;;;;;;;;;5053337;28;20136;-78
2022/05/07 03:55:50;;;;;;;5.07;4.22;;;;;;;;;;5053077;28;20547;-78
2022/05/07 03:58:17;;;;;;;5.95;3.42;;;;;;;;;;5053298;28;20084;-78
2022/05/07 04:00:43;;;;;;;3.72;2.70;;;;;;;;;;5053344;28;20049;-78
2022/05/07 04:03:10;;;;;;;3.55;3.15;;;;;;;;;;5052779;28;20080;-78
2022/05/07 04:05:37;;;;;;;3.85;2.80;;;;;;;;;;5053121;28;20068;-78
2022/05/07 04:08:04;;;;;;;2.72;2.13;;;;;;;;;;5053194;28;20076;-78
2022/05/07 04:10:30;;;;;;;2.28;1.98;;;;;;;;;;5052949;28;20103;-78
2022/05/07 04:12:57;;;;;;;3.65;1.80;;;;;;;;;;5068398;28;20456;-78
2022/05/07 04:15:23;;;;;;;2.28;2.00;;;;;;;;;;5051598;28;20096;-78
2022/05/07 04:17:50;;;;;;;4.18;1.83;;;;;;;;;;5051718;28;20080;-78
2022/05/07 04:20:16;;;;;;;2.05;1.70;;;;;;;;;;5051468;28;20045;-78
2022/05/07 04:22:43;;;;;;;2.58;1.50;;;;;;;;;;5052756;28;20088;-78
2022/05/07 04:25:10;;;;;;;2.50;1.30;;;;;;;;;;5052945;28;20077;-78
2022/05/07 04:27:37;;;;;;;1.75;1.02;;;;;;;;;;5052466;28;20041;-78
2022/05/07 04:30:03;;;;;;;1.15;1.02;;;;;;;;;;5052781;28;20084;-78
2022/05/07 04:32:30;;;;;;;2.60;1.40;;;;;;;;;;5052344;28;20049;-78
2022/05/07 04:34:56;;;;;;;2.13;1.20;;;;;;;;;;5051467;28;20044;-78
2022/05/07 04:37:23;;;;;;;1.83;1.25;;;;;;;;;;5051304;28;20074;-78
2022/05/07 04:39:50;;;;;;;1.90;1.47;;;;;;;;;;5052597;28;20077;-78
2022/05/07 04:42:16;;;;;;;1.65;1.17;;;;;;;;;;5052503;28;20084;-78
2022/05/07 04:44:43;;;;;;;1.50;1.40;;;;;;;;;;5050646;28;20505;-78
2022/05/07 04:47:09;;;;;;;1.58;1.48;;;;;;;;;;5052199;28;20497;-78
2022/05/07 04:49:36;;;;;;;1.67;1.48;;;;;;;;;;5051994;28;20045;-78
2022/05/07 04:52:05;;;;;;;2.80;1.63;;;;;;;;;;5052071;28;20076;-78
2022/05/07 04:54:32;;;;;;;2.20;1.75;;;;;;;;;;5051919;28;20520;-78
2022/05/07 04:56:59;;;;;;;3.05;1.77;;;;;;;;;;5052261;28;20099;-78
2022/05/07 04:59:25;;;;;;;3.25;1.65;;;;;;;;;;5052304;28;20044;-78
2022/05/07 05:01:52;;;;;;;1.88;1.67;;;;;;;;;;5051867;28;20508;-78
2022/05/07 05:04:19;;;;;;;2.25;1.60;;;;;;;;;;5052004;28;20049;-78
2022/05/07 05:06:45;;;;;;;1.80;1.70;;;;;;;;;;5051935;28;20087;-78
2022/05/07 05:09:15;;;;;;;2.78;1.90;;;;;;;;;;5051897;28;20134;-78
2022/05/07 05:11:42;;;;;;;1.65;1.55;;;;;;;;;;5067353;28;20386;-78
2022/05/07 05:16:53;;;;;;;1.95;1.70;;;;;;;;;;5051489;28;20087;-78
2022/05/07 05:19:20;;;;;;;2.30;1.60;;;;;;;;;;5051602;28;20382;-78
2022/05/07 05:21:46;;;;;;;2.13;1.80;;;;;;;;;;5050462;28;20532;-77
2022/05/07 05:24:13;;;;;;;1.80;1.70;;;;;;;;;;5050165;28;20602;-77
2022/05/07 05:26:39;;;;;;;1.95;1.75;;;;;;;;;;5052152;28;20088;-77
2022/05/07 05:29:05;;;;;;;2.00;1.60;;;;;;;;;;5051720;28;20080;-78
2022/05/07 05:31:32;;;;;;;3.08;1.98;;;;;;;;;;5050485;28;20080;-78
2022/05/07 05:33:59;;;;;;;2.53;1.88;;;;;;;;;;5050115;28;20103;-78
2022/05/07 05:36:27;;;;;;;2.03;1.90;;;;;;;;;;5050185;28;20463;-78
2022/05/07 05:38:53;;;;;;;2.45;1.60;;;;;;;;;;5051682;28;20087;-78
2022/05/07 05:41:20;;;;;;;2.78;1.48;;;;;;;;;;5051683;28;20076;-78
2022/05/07 05:43:46;;;;;;;1.73;1.52;;;;;;;;;;5051451;28;20468;-78
2022/05/07 05:46:16;;;;;;;2.85;1.70;;;;;;;;;;5051310;28;20493;-78
2022/05/07 05:48:42;;;;;;;2.35;1.52;;;;;;;;;;5051480;28;20051;-78
2022/05/07 05:51:09;;;;;;;3.08;1.80;;;;;;;;;;5050223;28;20075;-78
2022/05/07 05:53:35;;;;;;;1.67;1.58;;;;;;;;;;5051214;28;20513;-78
2022/05/07 05:56:02;;;;;;;2.90;1.90;;;;;;;;;;5051586;28;20077;-78
2022/05/07 05:58:35;;;;;;;2.22;1.90;;;;;;;;;;5051590;28;20073;-78
2022/05/07 06:01:02;;;;;;;2.58;2.03;;;;;;;;;;5051615;28;20109;-78
2022/05/07 06:03:29;;;;;;;1.60;1.50;;;;;;;;;;5051353;28;20087;-78
2022/05/07 06:05:56;;;;;;;1.80;1.70;;;;;;;;;;5051211;28;20049;-78
2022/05/07 06:08:23;;;;;;;2.03;1.73;;;;;;;;;;5051446;28;20404;-78
2022/05/07 06:10:52;;;;;;;2.45;1.90;;;;;;;;;;5051495;28;20045;-78
2022/05/07 06:13:19;;;;;;;3.00;1.90;;;;;;;;;;5051390;28;20060;-78
2022/05/07 06:15:51;;;;;;;2.03;1.80;;;;;;;;;;5050119;28;20076;-78
2022/05/07 06:18:18;;;;;;;2.58;1.40;;;;;;;;;;5050183;28;20283;-78
2022/05/07 06:20:44;;;;;;;3.00;1.80;;;;;;;;;;5051278;28;20044;-78
2022/05/07 06:23:11;;;;;;;3.15;1.63;;;;;;;;;;5049975;28;20085;-78
2022/05/07 06:28:25;;;;;;;1.40;1.30;;;;;;;;;;5051229;28;20128;-79
2022/05/07 06:30:52;;;;;;;1.77;1.67;;;;;;;;;;5052487;28;20504;-80
2022/05/07 06:33:19;;;;;;;1.80;1.63;;;;;;;;;;5055079;28;20072;-78
2022/05/07 06:35:45;;;;;;;2.17;1.50;;;;;;;;;;5054807;28;20077;-78
2022/05/07 06:38:12;;;;;;;3.13;1.63;;;;;;;;;;5054865;28;20069;-78
2022/05/07 06:40:39;;;;;;;2.67;1.65;;;;;;;;;;5054919;28;20131;-79
2022/05/07 06:43:06;;;;;;;1.70;1.60;;;;;;;;;;5054429;28;20076;-78
2022/05/07 06:45:33;;;;;;;1.92;1.55;;;;;;;;;;5054866;28;20087;-78
2022/05/07 06:48:00;;;;;;;2.28;1.67;;;;;;;;;;5054594;28;20110;-78
2022/05/07 06:50:26;;;;;;;2.70;1.73;;;;;;;;;;5054546;28;20077;-78
2022/05/07 06:52:53;;;;;;;2.60;1.70;;;;;;;;;;5054600;28;20477;-78
2022/05/07 06:55:19;;;;;;;1.52;1.40;;;;;;;;;;5053836;28;20076;-79
2022/05/07 06:57:46;;;;;;;2.20;2.05;;;;;;;;;;5054683;28;20053;-76
2022/05/07 07:00:32;;;;;;;5.15;1.50;;;;;;;;;;5054381;28;20052;-77
2022/05/07 07:02:59;;;;;;;2.55;1.35;;;;;;;;;;5054421;28;20491;-75
2022/05/07 07:05:25;;;;;;;1.83;1.35;;;;;;;;;;5053734;28;20545;-74
2022/05/07 07:07:52;;;;;;;2.33;1.55;;;;;;;;;;5069404;28;20083;-75
2022/05/07 07:10:18;;;;;;;2.28;1.50;;;;;;;;;;5053556;28;20490;-75
2022/05/07 07:12:45;;;;;;;4.03;1.55;;;;;;;;;;5053915;28;20083;-76
2022/05/07 07:15:12;;;;;;;1.83;1.60;;;;;;;;;;5054457;28;20084;-76
2022/05/07 07:17:38;;;;;;;2.00;1.40;;;;;;;;;;5053649;28;20128;-75
2022/05/07 07:20:05;;;;;;;1.73;1.50;;;;;;;;;;5053630;28;20091;-73
2022/05/07 07:22:32;;;;;;;1.58;1.48;;;;;;;;;;5054067;28;20088;-73
2022/05/07 07:24:59;;;;;;;1.50;1.40;;;;;;;;;;5052219;28;20127;-72
2022/05/07 07:27:26;;;;;;;1.80;1.27;;;;;;;;;;5053396;28;20048;-74
2022/05/07 07:29:52;;;;;;;3.47;1.80;;;;;;;;;;5054107;28;20119;-73
2022/05/07 07:32:19;;;;;;;2.07;1.47;;;;;;;;;;5052313;28;20049;-73
2022/05/07 07:34:45;;;;;;;3.40;1.58;;;;;;;;;;5052253;28;20132;-75
2022/05/07 07:37:12;;;;;;;3.22;1.40;;;;;;;;;;5050473;28;20048;-72
2022/05/07 07:39:38;;;;;;;2.03;1.40;;;;;;;;;;5053233;28;20084;-72
2022/05/07 07:42:05;;;;;;;4.18;1.60;;;;;;;;;;5052680;28;20083;-72
2022/05/07 07:44:32;;;;;;;1.90;1.65;;;;;;;;;;5052189;28;20094;-74
2022/05/07 07:49:43;;;;;;;2.83;1.83;;;;;;;;;;5047955;28;20099;-74
2022/05/07 07:52:10;;;;;;;1.63;1.43;;;;;;;;;;5051993;28;20049;-72
2022/05/07 07:54:36;;;;;;;1.30;1.20;;;;;;;;;;5049205;28;20317;-83
2022/05/07 07:57:03;;;;;;;1.97;1.50;;;;;;;;;;5066705;28;20114;-74
2022/05/07 07:59:32;;;;;;;2.08;1.52;;;;;;;;;;5038736;28;20080;-72
2022/05/07 08:01:58;;;;;;;1.40;1.05;;;;;;;;;;5053466;28;20457;-69
2022/05/07 08:04:25;;;;;;;1.00;1.00;;;;;;;;;;5051925;28;20563;-70
2022/05/07 08:11:40;;;;;;;1.80;1.20;;;;;;;;;;5051789;28;20437;-69
2022/05/07 08:12:25;;;;;;;1.40;1.30;;;;;;;;;;5053195;28;20465;-74
2022/05/07 08:14:51;;;;;;;;;;;;;;;;;;5053507;28;20048;-75
2022/05/07 08:17:18;;;;;;;2.20;1.23;;;;;;;;;;5052175;28;19964;-72
2022/05/07 08:19:44;;;;;;;2.60;1.30;;;;;;;;;;5052721;28;20466;-72
2022/05/07 08:22:10;;;;;;;2.30;1.50;;;;;;;;;;5052386;28;20131;-74
2022/05/07 08:24:37;;;;;;;1.67;1.17;;;;;;;;;;5052363;28;20560;-76
2022/05/07 08:27:03;;;;;;;2.67;1.13;;;;;;;;;;5052626;28;20120;-75
2022/05/07 08:29:30;;;;;;;1.98;1.30;;;;;;;;;;5052118;28;20045;-73
2022/05/07 08:31:56;;;;;;;1.75;1.25;;;;;;;;;;5051608;28;20072;-74
2022/05/07 08:34:23;;;;;;;3.42;1.25;;;;;;;;;;5050250;28;20056;-72
2022/05/07 08:36:49;;;;;;;1.63;0.98;;;;;;;;;;5052222;28;20111;-73
2022/05/07 08:39:16;;;;;;;2.38;0.93;;;;;;;;;;5052163;28;20133;-73
2022/05/07 08:41:42;;;;;;;2.63;1.00;;;;;;;;;;5051412;28;20049;-73
2022/05/07 08:44:09;;;;;;;3.10;1.05;;;;;;;;;;5050561;28;20080;-73
2022/05/07 08:46:38;;;;;;;2.08;0.98;;;;;;;;;;5051153;28;20076;-73
2022/05/07 08:49:04;;;;;;;1.60;1.10;;;;;;;;;;5051636;28;20096;-73
2022/05/07 08:51:33;;;;;;;2.03;1.00;;;;;;;;;;5051758;28;20104;-73
2022/05/07 08:54:00;;;;;;;2.28;1.17;;;;;;;;;;5051092;28;20127;-73
2022/05/07 08:56:27;;;;;;;1.10;0.98;;;;;;;;;;5051545;28;20115;-73
2022/05/07 08:58:54;;;;;;;1.98;1.10;;;;;;;;;;5051808;28;20053;-73
2022/05/07 09:01:21;;;;;;;2.03;1.20;;;;;;;;;;5050827;28;20509;-73
2022/05/07 09:03:48;;;;;;;2.35;1.15;;;;;;;;;;5052110;28;20053;-73
2022/05/07 09:06:15;;;;;;;;;;;;;;;;;;5052719;28;20444;-73
2022/05/07 09:08:41;;;;;;;2.47;0.90;;;;;;;;;;5051905;28;19964;-74
2022/05/07 09:11:08;;;;;;;0.77;0.70;;;;;;;;;;5052247;28;20072;-73
2022/05/07 09:13:35;;;;;;;1.23;0.98;;;;;;;;;;5050484;28;20144;-73
2022/05/07 09:16:04;;;;;;;3.13;0.90;;;;;;;;;;5052120;28;20049;-78
2022/05/07 09:18:34;;;;;;;1.45;0.80;;;;;;;;;;5050972;28;20059;-79
2022/05/07 09:21:17;;;;;;;1.42;0.82;;;;;;;;;;5050564;28;20504;-79
2022/05/07 09:24:01;;;;;;;1.95;0.90;;;;;;;;;;5042628;28;20452;-78
2022/05/07 09:26:35;;;;;;;1.30;0.70;;;;;;;;;;5030064;28;20077;-78
2022/05/07 09:29:03;;;;;;;2.45;0.68;;;;;;;;;;5031304;28;20394;-78
2022/05/07 09:31:31;;;;;;;1.52;0.80;;;;;;;;;;5031470;28;20068;-79
2022/05/07 09:36:44;;;;;;;1.73;0.52;;;;;;;;;;5031991;28;20072;-78
2022/05/07 09:39:17;;;;;;;0.63;0.50;;;;;;;;;;5046398;28;20076;-79
2022/05/07 09:41:43;;;;;;;1.60;0.50;;;;;;;;;;5031577;28;20492;-78
2022/05/07 09:44:10;;;;;;;0.77;0.50;;;;;;;;;;5046526;28;20057;-78
2022/05/07 09:46:40;;;;;;;1.23;0.30;;;;;;;;;;5031485;28;20041;-78
2022/05/07 09:49:07;;;;;;;0.60;0.50;;;;;;;;;;5031860;28;20052;-78
2022/05/07 09:51:34;;;;;;;0.57;0.40;;;;;;;;;;5046990;28;20046;-78
2022/05/07 09:59:33;;;;;;;0.70;0.38;;;;;;;;;;5043088;28;20069;-79
2022/05/07 10:02:22;;;;;;;0.88;0.30;;;;;;;;;;5051595;28;20139;-79
2022/05/07 10:05:05;;;;;;;1.10;0.40;;;;;;;;;;5054368;28;20049;-76
2022/05/07 10:07:40;;;;;;;2.15;0.70;;;;;;;;;;5047508;28;20077;-77
2022/05/07 10:10:07;;;;;;;0.75;0.50;;;;;;;;;;5052766;28;20076;-76
2022/05/07 10:12:34;;;;;;;1.15;0.40;;;;;;;;;;5055372;28;20471;-76
2022/05/07 10:15:05;;;;;;;0.98;0.40;;;;;;;;;;5055393;28;20397;-76
2022/05/07 10:17:31;;;;;;;0.80;0.47;;;;;;;;;;5055161;28;20469;-76
2022/05/07 10:20:05;;;;;;;2.10;0.60;;;;;;;;;;5055100;28;20056;-77
2022/05/07 10:22:31;;;;;;;2.22;0.65;;;;;;;;;;5054890;28;20087;-77
2022/05/07 10:25:06;;;;;;;4.18;0.50;;;;;;;;;;5069802;28;20468;-76
2022/05/07 10:27:33;;;;;;;4.78;0.60;;;;;;;;;;5054712;28;20037;-76
2022/05/07 10:30:07;;;;;;;3.88;0.75;;;;;;;;;;5054394;28;20463;-75
2022/05/07 10:32:52;;;;;;;3.08;0.40;;;;;;;;;;5055077;28;20083;-77
2022/05/07 10:35:37;;;;;;;2.10;0.77;;;;;;;;;;5053800;28;20068;-77
2022/05/07 10:38:09;;;;;;;2.08;0.40;;;;;;;;;;5055363;28;20056;-77
2022/05/07 10:40:36;;;;;;;1.45;0.70;;;;;;;;;;5054689;28;20060;-77
2022/05/07 10:43:04;;;;;;;0.70;0.60;;;;;;;;;;5054174;28;20092;-76
2022/05/07 10:45:38;;;;;;;0.90;0.40;;;;;;;;;;5053371;28;20459;-79
2022/05/07 10:48:15;;;;;;;1.48;0.40;;;;;;;;;;5054859;28;20147;-77
2022/05/07 10:50:59;;;;;;;2.15;0.50;;;;;;;;;;5053622;28;20079;-77
2022/05/07 10:53:38;;;;;;;3.17;0.50;;;;;;;;;;5054252;28;20559;-77
2022/05/07 10:56:10;;;;;;;0.82;0.30;;;;;;;;;;5053359;28;20088;-76
2022/05/07 10:58:37;;;;;;;0.98;0.52;;;;;;;;;;5054635;28;20048;-77
2022/05/07 11:01:04;;;;;;;1.08;0.70;;;;;;;;;;5054558;28;20455;-77
2022/05/07 11:03:32;;;;;;;2.50;1.85;;;;;;;;;;5054163;28;20057;-77
2022/05/07 11:06:00;;;;;;;1.42;0.60;;;;;;;;;;5054350;28;20088;-77
2022/05/07 11:08:29;;;;;;;2.45;0.65;;;;;;;;;;5053975;28;20489;-77
2022/05/07 11:11:07;;;;;;;1.85;0.95;;;;;;;;;;5052796;28;20080;-78
2022/05/07 11:13:43;;;;;;;0.98;0.38;;;;;;;;;;5052760;28;20076;-78
2022/05/07 11:16:10;;;;;;;1.15;0.40;;;;;;;;;;5053342;28;20088;-78
2022/05/07 11:18:38;;;;;;;1.40;0.30;;;;;;;;;;5054211;28;20132;-74
2022/05/07 11:21:05;;;;;;;0.50;0.30;;;;;;;;;;5054228;28;20044;-74
2022/05/07 11:23:39;;;;;;;1.65;0.30;;;;;;;;;;5054041;28;20095;-87
2022/05/07 11:26:13;;;;;;;1.20;0.20;;;;;;;;;;5052591;28;20069;-77
2022/05/07 11:28:40;;;;;;;1.38;0.40;;;;;;;;;;5053223;28;20135;-78
2022/05/07 11:31:07;;;;;;;1.58;0.47;;;;;;;;;;5053035;28;20131;-82
2022/05/07 11:33:34;;;;;;;1.20;0.30;;;;;;;;;;5053230;28;20056;-76
2022/05/07 11:36:01;;;;;;;0.77;0.40;;;;;;;;;;5053095;28;20488;-75
2022/05/07 11:38:28;;;;;;;1.00;0.35;;;;;;;;;;5052927;28;20110;-81
2022/05/07 11:40:54;;;;;;;;;;;;;;;;;;5053405;28;20472;-77
2022/05/07 11:46:06;;;;;;;1.20;0.80;;;;;;;;;;5053676;28;20076;-77
2022/05/07 11:48:33;;;;;;;1.33;0.60;;;;;;;;;;5053678;28;20359;-78
2022/05/07 11:51:02;;;;;;;;;;;;;;;;;;5052574;28;20081;-78
2022/05/07 11:53:29;;;;;;;1.48;0.90;;;;;;;;;;5053230;28;20368;-79
2022/05/07 11:56:06;;;;;;;5.10;0.90;;;;;;;;;;5053366;28;20053;-79
2022/05/07 11:58:42;;;;;;;0.90;0.65;;;;;;;;;;5053429;28;20080;-79
2022/05/07 12:01:18;;;;;;;19.52;15.38;;;;;;;;;;5053496;28;20144;-79
2022/05/07 12:03:45;;;;;;;;;;;;;;;;;;5053787;28;20079;-79
2022/05/07 12:06:22;;;;;;;0.93;0.15;;;;;;;;;;5052958;28;19928;-80
2022/05/07 12:08:48;;;;;;;0.93;0.30;;;;;;;;;;5052006;28;20068;-80
2022/05/07 12:11:15;;;;;;;1.58;0.30;;;;;;;;;;5052990;28;20532;-80
2022/05/07 12:13:41;;;;;;;0.55;0.20;;;;;;;;;;5053119;28;20099;-79
2022/05/07 12:18:52;;;;;;;1.07;0.40;;;;;;;;;;5052840;28;20045;-78
2022/05/07 12:29:48;;;;;;;0.40;0.20;;;;;;;;;;5052851;28;20080;-79
2022/05/07 12:29:50;;;;;;;1.50;0.30;;;;;;;;;;5053144;28;20079;-80
2022/05/07 12:32:21;;;;;;;0.80;0.30;;;;;;;;;;5052895;28;20119;-80
2022/05/07 12:34:48;;;;;;;1.10;0.30;;;;;;;;;;5052600;28;20044;-80
2022/05/07 12:37:15;;;;;;;2.83;0.40;;;;;;;;;;5052516;28;20098;-80
2022/05/07 12:39:42;;;;;;;1.00;0.25;;;;;;;;;;5051341;28;20094;-79
2022/05/07 12:42:09;;;;;;;1.15;0.20;;;;;;;;;;5052690;28;20045;-79
2022/05/07 12:44:36;;;;;;;0.63;0.20;;;;;;;;;;5052163;28;20639;-79
2022/05/07 12:47:03;;;;;;;;;;;;;;;;;;5052623;28;20088;-80
2022/05/07 12:49:29;;;;;;;0.50;0.15;;;;;;;;;;5052268;28;19952;-80
2022/05/07 12:51:56;;;;;;;0.40;0.10;;;;;;;;;;5067933;28;20436;-79
2022/05/07 12:54:22;;;;;;;0.73;0.20;;;;;;;;;;5050885;28;20084;-79
2022/05/07 12:56:48;;;;;;;;;;;;;;;;;;5052814;28;20072;-79
2022/05/07 12:59:15;;;;;;;0.32;0.20;;;;;;;;;;5050829;28;20380;-81
2022/05/07 13:01:42;;;;;;;0.47;0.20;;;;;;;;;;5050544;28;20340;-69
2022/05/07 13:04:08;;;;;;;0.98;0.20;;;;;;;;;;5050571;28;20049;-70
2022/05/07 13:06:35;;;;;;;0.73;0.30;;;;;;;;;;5050755;28;20359;-69
2022/05/07 13:09:01;;;;;;;0.50;0.30;;;;;;;;;;5050595;28;20069;-69
2022/05/07 13:11:27;;;;;;;;;;;;;;;;;;5051088;28;20386;-69
2022/05/07 13:13:54;;;;;;;0.45;0.20;;;;;;;;;;5050732;28;19975;-68
2022/05/07 13:16:21;;;;;;;0.52;0.20;;;;;;;;;;5049174;28;20082;-69
2022/05/07 13:18:47;;;;;;;;;;;;;;;;;;5050701;28;20049;-69
2022/05/07 13:21:14;;;;;;;0.47;0.30;;;;;;;;;;5048204;28;19921;-69
2022/05/07 13:23:41;;;;;;;;;;;;;;;;;;5050248;28;20049;-68
2022/05/07 13:26:07;;;;;;;0.88;0.30;;;;;;;;;;5049767;28;19925;-68
2022/05/07 13:28:34;;;;;;;1.15;0.20;;;;;;;;;;5049636;28;20064;-68
2022/05/07 13:31:01;;;;;;;0.70;0.28;;;;;;;;;;5045078;28;20120;-66
2022/05/07 13:33:28;;;;;;;0.57;0.10;;;;;;;;;;5041139;28;20481;-68
2022/05/07 13:35:55;;;;;;;1.02;0.28;;;;;;;;;;5046403;28;20072;-68
2022/05/07 13:38:21;;;;;;;0.90;0.50;;;;;;;;;;5050229;28;20084;-67
2022/05/07 13:40:49;;;;;;;0.52;0.30;;;;;;;;;;5050555;28;20475;-68
2022/05/07 13:43:15;;;;;;;0.63;0.20;;;;;;;;;;5050034;28;20098;-66
2022/05/07 13:45:42;;;;;;;;;;;;;;;;;;5049088;28;20132;-74
2022/05/07 13:48:08;;;;;;;0.40;0.30;;;;;;;;;;5050291;28;19921;-75
2022/05/07 13:50:36;;;;;;;0.50;0.20;;;;;;;;;;5049130;28;20080;-75
2022/05/07 13:53:03;;;;;;;0.55;0.20;;;;;;;;;;5050050;28;20079;-75
2022/05/07 13:55:29;;;;;;;1.45;0.40;;;;;;;;;;5051456;28;20045;-74
2022/05/07 13:57:55;;;;;;;4.85;0.40;;;;;;;;;;5051515;28;20080;-74
2022/05/07 14:00:22;;;;;;;;;;;;;;;;;;5051599;28;20140;-74
2022/05/07 14:02:48;;;;;;;0.38;0.20;;;;;;;;;;5051613;28;19924;-74
2022/05/07 14:05:15;;;;;;;0.38;0.30;;;;;;;;;;5049821;28;20076;-74
2022/05/07 14:07:41;;;;;;;0.47;0.20;;;;;;;;;;5051491;28;20077;-75
2022/05/07 14:10:08;;;;;;;0.63;0.28;;;;;;;;;;5051498;28;20081;-75
2022/05/07 14:12:35;;;;;;;0.73;0.20;;;;;;;;;;5051509;28;20076;-75
2022/05/07 14:15:02;;;;;;;0.68;0.20;;;;;;;;;;5050215;28;20094;-75
2022/05/07 14:17:29;;;;;;;0.50;0.30;;;;;;;;;;5051228;28;20079;-75
2022/05/07 14:19:58;;;;;;;0.52;0.25;;;;;;;;;;5051457;28;20057;-75
2022/05/07 14:22:26;;;;;;;0.82;0.30;;;;;;;;;;5051324;28;20045;-74
2022/05/07 14:24:54;;;;;;;1.30;0.30;;;;;;;;;;5051450;28;20080;-74
2022/05/07 14:27:30;;;;;;;0.32;0.22;;;;;;;;;;5050901;28;20041;-74
2022/05/07 14:29:56;;;;;;;1.17;0.20;;;;;;;;;;5051337;28;20464;-74
2022/05/07 14:32:24;;;;;;;1.20;0.60;;;;;;;;;;5051182;28;20072;-73
2022/05/07 14:34:50;;;;;;;0.43;0.30;;;;;;;;;;5050967;28;20045;-74
2022/05/07 14:37:17;;;;;;;1.08;0.38;;;;;;;;;;5049809;28;20048;-74
2022/05/07 14:42:30;;;;;;;0.80;0.40;;;;;;;;;;5030336;28;20489;-74
2022/05/07 14:44:57;;;;;;;2.17;0.55;;;;;;;;;;5050900;28;20122;-74
2022/05/07 14:47:23;;;;;;;0.77;0.40;;;;;;;;;;5048629;28;20136;-76
2022/05/07 14:49:50;;;;;;;1.35;0.35;;;;;;;;;;5049495;28;20469;-75
2022/05/07 14:52:17;;;;;;;1.85;0.40;;;;;;;;;;5053386;28;20077;-75
2022/05/07 14:54:55;;;;;;;0.73;0.40;;;;;;;;;;5052909;28;20041;-74
2022/05/07 14:57:22;;;;;;;1.25;0.70;;;;;;;;;;5053033;28;20535;-68
2022/05/07 14:59:48;;;;;;;0.50;0.50;;;;;;;;;;5053148;28;20075;-70
2022/05/07 15:02:15;;;;;;;1.55;0.50;;;;;;;;;;5052903;28;20143;-68
2022/05/07 15:04:41;;;;;;;0.60;0.40;;;;;;;;;;5052768;28;20102;-69
2022/05/07 15:07:08;;;;;;;0.68;0.60;;;;;;;;;;5052568;28;20098;-69
2022/05/07 15:12:19;;;;;;;1.00;0.50;;;;;;;;;;5052611;28;20077;-69
2022/05/07 15:14:46;;;;;;;1.38;0.50;;;;;;;;;;5052882;28;20559;-70
2022/05/07 15:17:12;;;;;;;2.38;0.80;;;;;;;;;;5053165;28;20099;-69
2022/05/07 15:19:39;;;;;;;1.75;0.50;;;;;;;;;;5053125;28;20560;-69
2022/05/07 15:22:05;;;;;;;1.02;0.50;;;;;;;;;;5053018;28;20053;-70
2022/05/07 15:24:32;;;;;;;2.25;0.98;;;;;;;;;;5052639;28;20080;-70
2022/05/07 15:27:05;;;;;;;1.05;0.70;;;;;;;;;;5052741;28;20080;-70
2022/05/07 15:29:31;;;;;;;;;;;;;;;;;;5053751;28;20059;-70
2022/05/07 15:37:28;;;;;;;1.77;0.98;;;;;;;;;;5052362;28;20076;-69
2022/05/07 15:39:54;;;;;;;1.60;1.10;;;;;;;;;;5052060;28;20044;-69
2022/05/07 15:42:21;;;;;;;1.50;1.23;;;;;;;;;;5052075;28;20053;-69